Time;durP1;ratioP1;P1;durP2;ratioP2;P2;SDS_P1;SDS_P2;PMS_P1;PMS_P2;Temp;Humidity;BMP_temperature;BMP_pressure;BME280_temperature;BME280_humidity;BME280_pressure;Samples;Min_cycle;Max_cycle;Signal;HPM_P1;HPM_P2
2023/06/18 00:00:48;;;;;;;6.00;5.40;;;;;;;19.53;47.59;98875.41;7175906;40;20275;31
2023/06/18 00:11:28;;;;;;;8.65;5.62;;;;;;;19.45;47.52;98870.28;7168545;40;21540;31
2023/06/18 00:17:03;;;;;;;5.90;5.37;;;;;;;19.61;47.12;98866.91;7268409;39;20349;31
2023/06/18 00:22:23;;;;;;;6.33;5.50;;;;;;;19.57;46.72;98873.87;7251601;40;20246;31
2023/06/18 00:28:00;;;;;;;6.37;5.77;;;;;;;19.44;47.40;98870.53;7242000;40;20252;31
2023/06/18 00:33:20;;;;;;;6.20;5.33;;;;;;;19.53;46.72;98871.84;7228025;40;20355;31
2023/06/18 00:38:46;;;;;;;6.70;5.20;;;;;;;19.49;47.91;98866.00;7239462;40;20257;31
2023/06/18 00:44:21;;;;;;;6.60;5.93;;;;;;;19.34;48.51;98855.50;7234711;40;20242;31
2023/06/18 00:49:51;;;;;;;6.60;5.90;;;;;;;19.08;49.27;98849.53;7237508;40;20305;31
2023/06/18 01:00:31;;;;;;;7.10;5.83;;;;;;;18.68;50.00;98844.56;7243290;40;21426;31
2023/06/18 01:11:09;;;;;;;6.80;5.43;;;;;;;18.46;50.91;98837.84;7296814;39;21141;31
2023/06/18 01:16:46;;;;;;;7.00;5.83;;;;;;;18.47;50.03;98840.31;7296374;40;20248;31
2023/06/18 01:22:19;;;;;;;6.60;5.90;;;;;;;18.56;50.65;98829.16;7212510;40;20265;31
2023/06/18 01:27:54;;;;;;;6.45;5.85;;;;;;;18.43;50.74;98838.25;7239290;40;20369;31
2023/06/18 01:33:33;;;;;;;6.40;5.80;;;;;;;18.32;51.41;98855.38;7189140;40;20392;31
2023/06/18 01:39:07;;;;;;;10.05;5.85;;;;;;;18.32;51.59;98844.47;7205839;40;20242;31
2023/06/18 01:44:40;;;;;;;6.90;5.67;;;;;;;18.42;51.65;98842.91;7236739;40;20357;31
2023/06/18 01:50:16;;;;;;;10.00;6.40;;;;;;;18.22;51.39;98850.44;7254485;40;20266;31
2023/06/18 02:07:00;;;;;;;7.25;5.60;;;;;;;18.00;52.43;98847.28;7334544;39;20267;31
2023/06/18 02:12:21;;;;;;;7.50;6.00;;;;;;;17.89;52.44;98856.19;7269212;40;20241;31
2023/06/18 02:17:56;;;;;;;6.60;5.90;;;;;;;17.79;53.54;98857.72;7321497;39;20263;31
2023/06/18 02:23:30;;;;;;;6.95;6.15;;;;;;;17.77;52.37;98848.97;7296915;39;20241;31
2023/06/18 02:34:10;;;;;;;8.67;6.70;;;;;;;17.84;51.63;98849.72;7245824;40;20277;31
2023/06/18 02:39:46;;;;;;;7.23;6.53;;;;;;;17.79;53.29;98853.13;7205967;40;20241;31
2023/06/18 02:45:08;;;;;;;7.43;5.90;;;;;;;17.76;52.95;98855.47;7212355;40;20246;31
2023/06/18 02:50:28;;;;;;;7.93;6.63;;;;;;;17.77;52.22;98846.22;7010761;40;20244;31
2023/06/18 02:56:04;;;;;;;7.63;6.23;;;;;;;18.08;51.60;98848.06;7227796;40;20258;31
2023/06/18 03:01:39;;;;;;;6.80;6.10;;;;;;;18.28;51.25;98843.25;7158930;40;20247;31
2023/06/18 03:07:14;;;;;;;7.83;6.20;;;;;;;18.13;51.28;98853.66;7177756;40;20272;31
2023/06/18 03:12:50;;;;;;;9.00;6.50;;;;;;;18.13;50.94;98854.50;7198009;40;20262;31
2023/06/18 03:18:12;;;;;;;7.45;5.80;;;;;;;18.25;50.89;98866.37;7207437;40;20238;31
2023/06/18 03:23:33;;;;;;;7.20;6.20;;;;;;;18.24;51.74;98863.88;7188422;40;20238;31
2023/06/18 03:29:09;;;;;;;9.10;6.60;;;;;;;18.09;51.83;98871.53;7201394;40;20245;31
2023/06/18 03:34:48;;;;;;;7.55;6.30;;;;;;;17.76;52.90;98880.84;7246078;40;20237;31
2023/06/18 03:40:07;;;;;;;6.67;5.97;;;;;;;17.81;52.73;98878.28;7236804;40;20261;31
2023/06/18 03:45:44;;;;;;;7.97;6.47;;;;;;;17.60;54.44;98865.00;7244309;40;20265;31
2023/06/18 03:56:10;;;;;;;7.22;5.82;;;;;;;17.86;53.21;98872.97;7297856;39;20270;31
2023/06/18 04:06:50;;;;;;;8.60;6.57;;;;;;;17.36;54.64;98871.19;7344430;39;21119;31
2023/06/18 04:12:26;;;;;;;10.60;6.30;;;;;;;17.33;55.84;98863.47;7298820;39;20393;31
2023/06/18 04:18:01;;;;;;;6.68;5.80;;;;;;;17.16;55.57;98865.03;7278003;39;20389;31
2023/06/18 04:23:37;;;;;;;8.10;6.00;;;;;;;17.17;56.90;98859.34;7258287;40;20262;31
2023/06/18 04:29:13;;;;;;;7.13;6.00;;;;;;;17.42;54.87;98870.34;7230725;40;20278;31
2023/06/18 04:34:49;;;;;;;7.10;5.93;;;;;;;17.61;54.11;98863.94;7251375;40;20242;31
2023/06/18 04:40:27;;;;;;;6.80;6.10;;;;;;;17.64;54.32;98862.69;7276176;39;20251;31
2023/06/18 04:46:03;;;;;;;7.60;6.20;;;;;;;17.59;53.85;98859.78;7238415;40;20403;31
2023/06/18 04:51:24;;;;;;;7.43;5.90;;;;;;;17.60;54.18;98859.53;7220641;40;20245;31
2023/06/18 04:57:00;;;;;;;8.33;5.93;;;;;;;17.65;54.53;98865.16;7157726;40;20317;31
2023/06/18 05:02:36;;;;;;;6.50;5.70;;;;;;;17.80;53.55;98862.97;7128993;40;20247;31
2023/06/18 05:07:56;;;;;;;6.85;6.15;;;;;;;17.96;53.99;98862.41;7193827;40;20258;31
2023/06/18 05:13:32;;;;;;;6.70;6.00;;;;;;;18.04;54.19;98861.28;7250763;39;20242;31
2023/06/18 05:19:08;;;;;;;6.73;6.03;;;;;;;18.19;54.28;98859.09;7264894;39;20242;31
2023/06/18 05:24:28;;;;;;;6.80;5.80;;;;;;;18.39;53.45;98862.44;7227773;40;20292;31
2023/06/18 05:35:08;;;;;;;8.73;6.50;;;;;;;18.70;54.17;98852.50;7248551;40;20989;31
2023/06/18 05:45:34;;;;;;;7.50;5.90;;;;;;;19.33;51.56;98872.09;7298004;39;20281;31
2023/06/18 05:56:13;;;;;;;7.57;6.67;;;;;;;19.68;50.78;98864.91;7279711;39;21279;31
2023/06/18 06:01:33;;;;;;;7.10;6.40;;;;;;;19.86;51.47;98874.94;7317089;39;20256;31
2023/06/18 06:07:09;;;;;;;6.80;6.10;;;;;;;20.10;50.76;98878.53;7271138;40;20257;31
2023/06/18 06:12:46;;;;;;;8.30;6.90;;;;;;;20.30;50.86;98873.63;7216307;40;20349;31
2023/06/18 06:18:07;;;;;;;7.00;6.30;;;;;;;20.53;49.58;98890.06;7196919;40;20261;31
2023/06/18 06:23:27;;;;;;;10.55;7.00;;;;;;;20.82;49.29;98879.19;7194454;40;20253;31
2023/06/18 06:29:03;;;;;;;7.40;6.70;;;;;;;20.90;49.17;98884.28;7233782;39;20522;31
2023/06/18 06:34:38;;;;;;;8.10;7.10;;;;;;;21.10;49.29;98887.50;7250407;39;20423;31
2023/06/18 06:40:14;;;;;;;10.50;7.00;;;;;;;21.21;47.67;98888.53;7216626;40;20245;31
2023/06/18 06:50:56;;;;;;;8.80;6.90;;;;;;;21.50;47.42;98888.31;7223511;40;20623;31
2023/06/18 07:01:35;;;;;;;9.70;6.90;;;;;;;21.94;47.19;98891.38;7276985;40;21090;31
2023/06/18 07:07:12;;;;;;;9.80;6.90;;;;;;;22.06;47.14;98902.28;7296154;40;20566;31
2023/06/18 07:12:47;;;;;;;8.20;7.18;;;;;;;22.31;46.46;98900.81;7280137;40;20265;31
2023/06/18 07:18:07;;;;;;;9.90;6.95;;;;;;;22.53;46.58;98898.13;7236415;40;20280;31
2023/06/18 07:23:43;;;;;;;7.70;6.90;;;;;;;22.65;47.02;98901.59;7257645;40;20319;31
2023/06/18 07:29:04;;;;;;;11.33;7.43;;;;;;;22.91;46.35;98905.59;7265529;39;20288;31
2023/06/18 07:34:24;;;;;;;9.55;8.10;;;;;;;23.14;46.40;98896.28;7304263;39;20283;31
2023/06/18 07:39:58;;;;;;;9.90;7.25;;;;;;;23.31;45.31;98886.88;7290668;39;20292;31
2023/06/18 07:45:18;;;;;;;10.05;7.50;;;;;;;23.56;45.67;98899.31;7272855;39;20337;31
2023/06/18 07:50:38;;;;;;;7.50;6.75;;;;;;;23.83;44.74;98902.09;7261450;39;20241;31
2023/06/18 07:56:16;;;;;;;7.80;6.90;;;;;;;24.06;43.68;98896.25;7282523;39;20361;31
2023/06/18 08:01:36;;;;;;;8.65;6.90;;;;;;;24.28;43.70;98897.03;7276857;39;20276;31
2023/06/18 08:07:12;;;;;;;9.00;6.70;;;;;;;24.47;42.38;98891.94;7288115;40;20252;31
2023/06/18 08:12:49;;;;;;;7.28;6.40;;;;;;;24.67;43.06;98887.41;7249842;40;20241;31
2023/06/18 08:18:09;;;;;;;7.50;6.35;;;;;;;25.02;42.46;98889.59;7218232;40;20332;31
2023/06/18 08:23:29;;;;;;;7.80;7.00;;;;;;;25.29;43.02;98888.59;7257020;40;20502;31
2023/06/18 08:29:05;;;;;;;7.53;6.72;;;;;;;25.40;41.44;98882.03;7252691;40;20267;31
2023/06/18 08:34:42;;;;;;;8.07;6.85;;;;;;;25.62;41.56;98881.88;7249040;40;20256;31
2023/06/18 08:40:02;;;;;;;7.25;6.55;;;;;;;25.91;41.67;98872.81;7234350;40;20241;31
2023/06/18 08:45:37;;;;;;;7.90;6.40;;;;;;;26.08;40.31;98874.47;7258243;40;20394;31
2023/06/18 08:51:13;;;;;;;7.68;5.90;;;;;;;26.28;40.37;98875.38;7196625;40;20253;31
2023/06/18 08:56:48;;;;;;;7.43;6.70;;;;;;;26.49;39.81;98875.34;7267486;40;20241;31
2023/06/18 09:02:25;;;;;;;7.20;6.50;;;;;;;26.65;39.43;98865.91;7264740;40;20275;31
2023/06/18 09:08:01;;;;;;;7.25;6.55;;;;;;;26.78;39.29;98857.87;7232916;40;20249;31
2023/06/18 09:13:36;;;;;;;13.75;6.40;;;;;;;27.05;38.47;98859.50;7252223;40;20441;31
2023/06/18 09:19:10;;;;;;;9.15;7.15;;;;;;;27.31;37.82;98861.03;7250007;40;20451;31
2023/06/18 09:24:45;;;;;;;13.20;8.90;;;;;;;27.44;37.58;98856.84;7268005;39;20442;31
2023/06/18 09:30:18;;;;;;;9.08;6.48;;;;;;;27.62;36.31;98853.44;7279242;40;20523;31
2023/06/18 09:35:54;;;;;;;48.92;43.50;;;;;;;27.88;36.97;98846.62;7235897;40;20270;31
2023/06/18 09:41:25;;;;;;;79.53;53.30;;;;;;;28.09;36.20;98837.03;6993430;40;21235;31
2023/06/18 09:47:01;;;;;;;13.80;11.00;;;;;;;28.28;35.72;98848.28;7178457;40;20263;31
2023/06/18 09:52:38;;;;;;;10.50;6.80;;;;;;;28.38;35.47;98841.84;7159373;40;20559;31
2023/06/18 09:58:13;;;;;;;7.65;6.35;;;;;;;28.61;34.91;98852.97;7136722;40;20479;31
2023/06/18 10:08:55;;;;;;;9.20;5.70;;;;;;;28.82;35.62;98844.47;7225121;40;20264;31
2023/06/18 10:14:28;;;;;;;8.57;5.23;;;;;;;29.07;34.14;98838.62;7208832;40;20239;31
2023/06/18 10:20:04;;;;;;;6.00;5.20;;;;;;;29.32;33.11;98827.22;7223250;40;20250;31
2023/06/18 10:25:39;;;;;;;7.10;5.00;;;;;;;29.44;32.78;98821.25;7226257;40;20444;31
2023/06/18 10:31:15;;;;;;;5.45;4.85;;;;;;;29.53;31.83;98823.03;7236805;40;20448;31
2023/06/18 10:36:49;;;;;;;5.60;4.80;;;;;;;29.76;29.10;98834.37;7215303;40;20468;31
2023/06/18 10:42:29;;;;;;;6.95;4.95;;;;;;;29.92;30.56;98828.34;7201925;40;20429;31
2023/06/18 10:48:05;;;;;;;5.68;4.82;;;;;;;29.93;30.30;98823.59;7239501;40;20477;31
2023/06/18 10:53:25;;;;;;;6.16;4.68;;;;;;;30.16;30.55;98822.66;7271544;39;20338;31
2023/06/18 10:59:01;;;;;;;5.40;4.90;;;;;;;30.43;28.75;98802.44;7265948;40;20257;31
2023/06/18 11:04:21;;;;;;;5.12;4.62;;;;;;;30.59;28.79;98791.88;7312348;39;20356;31
2023/06/18 11:10:03;;;;;;;4.80;4.12;;;;;;;30.47;28.51;98799.91;7320415;39;20260;31
2023/06/18 11:15:41;;;;;;;6.75;4.82;;;;;;;30.52;28.23;98786.72;7256758;40;20275;31
2023/06/18 11:21:17;;;;;;;7.90;4.93;;;;;;;30.64;28.12;98791.78;7256768;39;20318;31
2023/06/18 11:26:52;;;;;;;4.50;4.10;;;;;;;30.71;27.33;98787.50;7218769;40;20284;31
2023/06/18 11:32:29;;;;;;;4.50;4.07;;;;;;;30.74;26.31;98780.47;7240826;40;20360;31
2023/06/18 11:37:49;;;;;;;5.05;4.20;;;;;;;30.63;26.26;98784.59;7221127;40;20262;31
2023/06/18 11:43:09;;;;;;;5.55;4.07;;;;;;;30.79;26.79;98760.88;7230384;40;20261;31
2023/06/18 11:48:46;;;;;;;6.00;3.70;;;;;;;31.11;26.69;98740.47;7245822;40;20327;31
2023/06/18 11:54:21;;;;;;;5.55;4.20;;;;;;;31.33;26.79;98732.97;7238690;40;20545;31
2023/06/18 11:59:54;;;;;;;4.15;3.75;;;;;;;31.53;25.19;98742.00;7265903;40;20449;31
2023/06/18 12:05:31;;;;;;;5.78;4.18;;;;;;;31.45;25.94;98731.62;7237051;40;20261;31
2023/06/18 12:11:06;;;;;;;7.25;4.10;;;;;;;31.66;25.60;98727.22;7207971;40;20392;31
2023/06/18 12:16:41;;;;;;;4.62;4.05;;;;;;;31.62;25.54;98720.66;7218841;40;20253;31
2023/06/18 12:22:17;;;;;;;5.05;3.95;;;;;;;31.64;25.81;98718.34;7194956;40;20321;31
2023/06/18 12:27:52;;;;;;;6.42;4.18;;;;;;;31.64;24.32;98719.19;7235571;40;20800;31
2023/06/18 12:38:32;;;;;;;4.40;4.00;;;;;;;32.04;25.04;98708.13;7245470;40;20458;31
2023/06/18 12:49:12;;;;;;;4.95;3.87;;;;;;;32.31;24.27;98693.22;7240180;39;20268;31
2023/06/18 12:59:53;;;;;;;5.15;3.75;;;;;;;32.02;24.69;98682.53;7290274;39;20264;31
2023/06/18 13:05:28;;;;;;;4.90;4.10;;;;;;;32.34;24.47;98665.47;7287845;40;20265;31
2023/06/18 13:16:08;;;;;;;4.72;3.40;;;;;;;32.72;24.26;98660.25;7274489;40;20772;31
2023/06/18 13:21:44;;;;;;;4.30;3.50;;;;;;;32.64;24.35;98658.25;7241953;39;20258;31
2023/06/18 13:32:22;;;;;;;5.30;3.70;;;;;;;32.43;23.73;98654.38;7277594;40;20474;31
2023/06/18 13:43:03;;;;;;;5.05;3.92;;;;;;;32.85;23.23;98653.69;7284130;40;20330;31
2023/06/18 13:53:43;;;;;;;4.30;3.90;;;;;;;32.46;24.32;98637.81;7276737;39;20594;31
2023/06/18 13:59:19;;;;;;;5.82;4.30;;;;;;;32.54;24.86;98641.75;7279254;40;20257;31
2023/06/18 14:04:55;;;;;;;5.37;3.95;;;;;;;32.47;24.72;98641.44;7238417;39;20261;31
2023/06/18 14:15:36;;;;;;;6.20;4.50;;;;;;;32.84;23.89;98628.87;7256190;40;20443;31
2023/06/18 14:21:13;;;;;;;5.07;4.57;;;;;;;32.80;25.64;98617.56;7229324;40;20227;31
2023/06/18 14:26:48;;;;;;;6.00;4.30;;;;;;;32.71;24.53;98622.28;7187002;40;20266;31
2023/06/18 14:32:24;;;;;;;5.00;4.50;;;;;;;32.56;25.48;98622.75;7145480;40;20419;31
2023/06/18 14:38:00;;;;;;;4.35;3.95;;;;;;;32.46;24.58;98625.81;7168262;40;20258;31
2023/06/18 14:43:36;;;;;;;5.80;4.07;;;;;;;32.05;24.56;98623.31;7163096;40;20251;31
2023/06/18 14:49:13;;;;;;;5.45;4.40;;;;;;;31.98;26.14;98617.41;7249169;40;20257;31
2023/06/18 14:54:35;;;;;;;6.73;4.23;;;;;;;31.91;26.90;98612.25;7239541;40;20320;31
2023/06/18 14:59:55;;;;;;;8.55;4.57;;;;;;;31.87;26.38;98616.00;7291353;39;20274;31
2023/06/18 15:05:31;;;;;;;6.10;4.60;;;;;;;31.56;26.51;98600.09;7295051;39;20256;31
2023/06/18 15:10:52;;;;;;;4.85;4.35;;;;;;;31.38;26.81;98600.25;7256087;40;20275;31
2023/06/18 15:16:13;;;;;;;4.68;4.22;;;;;;;31.41;26.74;98591.28;7215775;40;20430;31
2023/06/18 15:21:48;;;;;;;5.30;3.70;;;;;;;31.18;26.12;98594.06;7263755;40;20318;31
2023/06/18 15:27:23;;;;;;;4.30;3.90;;;;;;;30.97;26.50;98587.31;7275617;39;20516;31
2023/06/18 15:32:58;;;;;;;6.50;4.03;;;;;;;31.01;26.80;98593.13;7236160;40;20538;31
2023/06/18 15:43:39;;;;;;;5.00;4.50;;;;;;;30.96;26.69;98591.25;7225172;40;20269;31
2023/06/18 15:54:19;;;;;;;5.20;4.65;;;;;;;30.98;29.86;98583.37;7298320;39;20293;31
2023/06/18 15:59:55;;;;;;;5.60;4.93;;;;;;;30.92;30.45;98584.66;7297499;39;20498;31
2023/06/18 16:05:16;;;;;;;6.40;4.70;;;;;;;31.00;32.81;98589.50;7209195;40;20238;31
2023/06/18 16:10:52;;;;;;;8.50;5.15;;;;;;;30.99;32.57;98579.47;7177496;40;20467;31
2023/06/18 16:16:28;;;;;;;15.85;5.15;;;;;;;31.05;32.30;98578.25;7174732;40;20440;31
2023/06/18 16:21:49;;;;;;;8.50;4.82;;;;;;;31.02;30.89;98575.28;7216702;40;20331;31
2023/06/18 16:27:23;;;;;;;6.70;4.60;;;;;;;31.05;31.57;98577.41;7256044;40;20256;31
2023/06/18 16:33:00;;;;;;;6.10;4.80;;;;;;;31.12;32.49;98584.19;7041475;39;21345;31
2023/06/18 16:38:37;;;;;;;7.05;4.75;;;;;;;31.13;33.25;98580.28;7276556;39;20420;31
2023/06/18 16:43:59;;;;;;;6.34;5.00;;;;;;;31.13;33.02;98585.84;7237437;40;20264;31
2023/06/18 16:49:35;;;;;;;5.60;5.00;;;;;;;31.02;34.37;98587.25;7236311;40;20266;31
2023/06/18 17:00:01;;;;;;;8.25;5.03;;;;;;;30.85;36.09;98589.81;7229797;40;20269;31
2023/06/18 17:10:43;;;;;;;10.65;5.70;;;;;;;30.64;35.74;98580.28;7253199;39;20449;31
2023/06/18 17:16:17;;;;;;;8.20;6.75;;;;;;;30.55;36.20;98579.38;7277073;40;20257;31
2023/06/18 17:21:37;;;;;;;7.75;6.25;;;;;;;30.45;35.86;98569.31;7219271;40;20562;31
2023/06/18 17:27:13;;;;;;;6.40;5.80;;;;;;;30.24;36.76;98574.44;7241763;40;21335;31
2023/06/18 17:32:33;;;;;;;6.45;5.30;;;;;;;30.10;39.52;98586.72;7242889;40;20260;31
2023/06/18 17:37:53;;;;;;;5.35;4.85;;;;;;;29.97;39.34;98580.03;7240842;40;20467;31
2023/06/18 17:43:29;;;;;;;5.85;5.15;;;;;;;29.88;38.57;98587.44;7279789;39;20493;31
2023/06/18 17:49:04;;;;;;;5.43;4.93;;;;;;;29.69;38.49;98592.19;7236115;40;20459;31
2023/06/18 17:54:39;;;;;;;5.62;4.78;;;;;;;29.61;38.05;98582.63;7217379;40;20322;31
2023/06/18 18:00:16;;;;;;;6.35;4.80;;;;;;;29.39;39.05;98590.78;7156425;40;20258;31
2023/06/18 18:05:36;;;;;;;4.80;4.35;;;;;;;29.30;38.16;98596.22;7138733;40;20271;31
2023/06/18 18:11:00;;;;;;;6.55;5.10;;;;;;;29.24;40.10;98602.94;7147672;40;20354;31
2023/06/18 18:16:40;;;;;;;6.85;4.80;;;;;;;29.12;38.78;98599.81;7243263;40;20541;31
2023/06/18 18:22:18;;;;;;;6.14;5.30;;;;;;;28.99;38.39;98590.31;7231691;40;20335;31
2023/06/18 18:27:52;;;;;;;8.52;5.00;;;;;;;28.80;38.40;98589.47;7274916;39;20296;31
2023/06/18 18:38:33;;;;;;;6.77;5.23;;;;;;;28.59;39.95;98566.72;7253885;40;20358;31
2023/06/18 18:48:58;;;;;;;8.85;4.90;;;;;;;28.55;39.82;98564.84;7232404;40;20297;31
2023/06/18 18:59:39;;;;;;;6.70;5.05;;;;;;;28.41;39.77;98567.53;7267339;39;20280;31
2023/06/18 19:05:14;;;;;;;5.80;4.82;;;;;;;28.33;39.62;98576.53;7258603;40;20254;31
2023/06/18 19:10:49;;;;;;;5.53;4.93;;;;;;;28.17;41.41;98583.41;7225536;40;20245;31
2023/06/18 19:16:26;;;;;;;7.55;5.75;;;;;;;28.05;41.05;98588.47;7236702;40;20269;31
2023/06/18 19:22:01;;;;;;;5.10;4.60;;;;;;;27.92;40.93;98589.19;7176196;40;20255;31
2023/06/18 19:27:21;;;;;;;5.10;4.60;;;;;;;27.73;40.64;98578.06;7197447;40;20263;31
2023/06/18 19:32:57;;;;;;;5.28;4.54;;;;;;;27.61;41.17;98595.03;7167649;40;20308;31
2023/06/18 19:38:32;;;;;;;5.87;4.90;;;;;;;27.57;40.83;98602.28;7226425;40;20273;31
2023/06/18 19:44:08;;;;;;;6.02;5.02;;;;;;;27.44;41.75;98597.41;7276958;39;20256;31
2023/06/18 19:54:46;;;;;;;4.70;4.30;;;;;;;27.29;41.26;98587.28;7257694;39;21595;31
2023/06/18 20:00:23;;;;;;;5.05;4.65;;;;;;;27.25;42.49;98593.72;7203975;40;20250;31
2023/06/18 20:05:44;;;;;;;5.15;4.65;;;;;;;27.12;40.84;98584.09;7277629;39;20449;31
2023/06/18 20:11:20;;;;;;;5.95;4.70;;;;;;;26.99;42.72;98592.22;7297064;39;20273;31
2023/06/18 20:16:41;;;;;;;6.50;4.65;;;;;;;26.89;41.98;98599.50;7287230;39;20252;31
2023/06/18 20:22:16;;;;;;;8.43;4.20;;;;;;;26.73;43.27;98606.22;7253895;40;20573;31
2023/06/18 20:27:52;;;;;;;6.05;4.93;;;;;;;26.59;42.54;98605.19;7297530;40;20283;31
2023/06/18 20:33:28;;;;;;;5.20;4.70;;;;;;;26.55;41.74;98603.28;7299452;40;20244;31
2023/06/18 20:38:48;;;;;;;5.28;4.78;;;;;;;26.40;41.31;98606.94;7251103;40;20332;31
2023/06/18 20:49:29;;;;;;;5.80;4.65;;;;;;;26.03;42.41;98607.34;7239111;40;21280;31
2023/06/18 20:55:06;;;;;;;4.97;4.57;;;;;;;25.99;42.18;98607.06;7229934;40;20344;31
2023/06/18 21:00:39;;;;;;;6.82;4.93;;;;;;;25.88;41.75;98611.00;7159342;40;20275;31
2023/06/18 21:06:15;;;;;;;5.40;4.80;;;;;;;25.79;42.26;98622.88;7183765;40;20250;31
2023/06/18 21:11:50;;;;;;;8.40;4.55;;;;;;;25.72;42.57;98625.09;7219837;40;20591;31
2023/06/18 21:17:25;;;;;;;6.82;5.00;;;;;;;25.66;42.79;98629.81;7210129;40;20429;31
2023/06/18 21:23:01;;;;;;;5.15;4.57;;;;;;;25.58;42.73;98642.22;7219048;40;20260;31
2023/06/18 21:28:36;;;;;;;5.68;5.18;;;;;;;25.53;42.76;98647.75;7220145;40;20280;31
2023/06/18 21:39:17;;;;;;;7.35;4.80;;;;;;;25.49;43.21;98643.03;7212505;40;20273;31
2023/06/18 21:49:56;;;;;;;5.50;4.90;;;;;;;25.55;44.60;98659.34;7211498;40;21214;31
2023/06/18 21:55:32;;;;;;;6.53;5.87;;;;;;;25.34;44.25;98648.56;7237133;40;20259;31
2023/06/18 22:00:53;;;;;;;5.45;4.95;;;;;;;25.28;44.85;98658.75;7235652;40;20400;31
2023/06/18 22:06:28;;;;;;;6.80;5.53;;;;;;;25.23;44.36;98664.25;7201346;40;20456;31
2023/06/18 22:12:04;;;;;;;6.10;5.25;;;;;;;25.23;44.46;98653.22;7149951;40;20259;31
2023/06/18 22:17:39;;;;;;;6.80;5.50;;;;;;;25.14;44.04;98652.94;7203424;40;20269;31
2023/06/18 22:23:00;;;;;;;8.05;4.80;;;;;;;25.16;44.61;98660.94;7180247;40;20530;31
2023/06/18 22:28:36;;;;;;;5.43;4.93;;;;;;;25.05;44.20;98640.81;7241716;40;20540;31
2023/06/18 22:34:11;;;;;;;5.37;4.85;;;;;;;24.91;44.62;98634.19;7246526;40;20238;31
2023/06/18 22:39:32;;;;;;;6.55;5.10;;;;;;;24.90;44.28;98634.44;7195765;40;20343;31
2023/06/18 22:45:08;;;;;;;5.60;5.00;;;;;;;24.91;44.64;98639.69;7261408;39;20418;31
2023/06/18 22:50:29;;;;;;;11.45;5.12;;;;;;;24.94;44.79;98632.78;7239751;40;20258;31
2023/06/18 22:56:04;;;;;;;6.15;5.20;;;;;;;24.77;46.31;98623.91;7269929;39;20271;31
2023/06/18 23:01:40;;;;;;;5.95;5.35;;;;;;;24.58;47.25;98626.31;7263210;40;20253;31
2023/06/18 23:07:01;;;;;;;5.60;5.00;;;;;;;24.39;46.45;98623.25;7199242;40;20426;31
2023/06/18 23:12:37;;;;;;;6.85;5.80;;;;;;;24.17;47.42;98617.94;7197369;40;20238;31
2023/06/18 23:18:13;;;;;;;5.78;5.28;;;;;;;24.11;47.41;98621.72;7176316;40;20371;31
2023/06/18 23:23:31;;;;;;;5.80;5.20;;;;;;;23.99;48.13;98634.88;7001033;40;21253;31
2023/06/18 23:28:51;;;;;;;8.60;5.15;;;;;;;23.89;47.78;98643.06;7211498;40;20235;31
2023/06/18 23:34:26;;;;;;;7.32;5.10;;;;;;;23.83;47.45;98633.12;7212152;40;20344;31
2023/06/18 23:39:50;;;;;;;6.15;5.55;;;;;;;23.87;46.98;98638.94;7241651;40;20300;31
2023/06/18 23:45:20;;;;;;;6.65;5.30;;;;;;;23.88;46.80;98633.16;7292766;39;20240;31
2023/06/18 23:50:53;;;;;;;7.07;5.68;;;;;;;23.93;46.58;98638.69;7227346;40;20443;31
2023/06/18 23:56:13;;;;;;;5.80;5.30;;;;;;;24.01;46.17;98629.91;7229266;40;20258;31
